Time;durP1;ratioP1;P1;durP2;ratioP2;P2;SDS_P1;SDS_P2;PMS_P1;PMS_P2;Temp;Humidity;BMP_temperature;BMP_pressure;BME280_temperature;BME280_humidity;BME280_pressure;Samples;Min_cycle;Max_cycle;Signal;HPM_P1;HPM_P2
2021/09/06 00:01:33;;;;;;;1.90;1.70;;;;;;;14.34;88.98;101856.63;5072808;28;20465;-70
2021/09/06 00:04:00;;;;;;;1.33;0.93;;;;;;;14.32;89.93;101861.53;5072902;28;20453;-70
2021/09/06 00:06:26;;;;;;;1.57;1.47;;;;;;;14.30;90.94;101852.06;5072863;28;20464;-70
2021/09/06 00:08:54;;;;;;;1.33;1.10;;;;;;;14.36;91.54;101851.66;5072483;28;20458;-70
2021/09/06 00:11:21;;;;;;;4.80;1.93;;;;;;;14.38;91.71;101851.34;5073010;28;20461;-70
2021/09/06 00:13:49;;;;;;;2.10;1.43;;;;;;;14.37;91.73;101844.28;5072462;28;20800;-70
2021/09/06 00:16:16;;;;;;;1.77;1.67;;;;;;;14.38;91.19;101841.25;5072718;28;20484;-70
2021/09/06 00:18:42;;;;;;;3.83;2.00;;;;;;;14.43;90.93;101840.38;5072738;28;20485;-70
2021/09/06 00:21:09;;;;;;;2.10;1.20;;;;;;;14.45;90.67;101848.28;5072578;28;20464;-68
2021/09/06 00:23:36;;;;;;;2.13;1.43;;;;;;;14.45;90.75;101835.44;5072625;28;20441;-70
2021/09/06 00:26:05;;;;;;;1.27;1.17;;;;;;;14.43;90.92;101845.81;5072974;28;20437;-71
2021/09/06 00:28:31;;;;;;;1.93;1.47;;;;;;;14.46;90.18;101841.72;5072633;28;20444;-70
2021/09/06 00:30:58;;;;;;;3.50;1.87;;;;;;;14.46;91.05;101847.16;5072548;28;20441;-70
2021/09/06 00:33:25;;;;;;;1.03;0.93;;;;;;;14.45;90.63;101843.63;5072599;28;20445;-70
2021/09/06 00:35:51;;;;;;;2.37;1.30;;;;;;;14.48;90.94;101839.50;5072235;28;20818;-71
2021/09/06 00:38:19;;;;;;;2.30;1.33;;;;;;;14.44;90.54;101842.03;5072399;28;20946;-70
2021/09/06 00:40:46;;;;;;;1.80;1.27;;;;;;;14.45;90.62;101842.81;5072741;28;20536;-70
2021/09/06 00:43:14;;;;;;;3.20;1.83;;;;;;;14.46;90.44;101837.06;5075790;28;20461;-70
2021/09/06 00:45:41;;;;;;;1.57;1.30;;;;;;;14.44;90.89;101849.38;5076514;28;20448;-70
2021/09/06 00:48:09;;;;;;;1.33;1.17;;;;;;;14.41;89.75;101844.53;5075960;28;20449;-71
2021/09/06 00:50:37;;;;;;;5.07;1.90;;;;;;;14.39;89.22;101844.81;5075972;28;20544;-70
2021/09/06 00:53:04;;;;;;;2.73;1.00;;;;;;;14.38;86.50;101846.72;5075558;28;20973;-71
2021/09/06 00:55:31;;;;;;;2.30;1.40;;;;;;;14.36;87.75;101846.22;5076033;28;20437;-71
2021/09/06 00:57:57;;;;;;;4.30;2.50;;;;;;;14.26;87.90;101843.66;5075838;28;20449;-71
2021/09/06 01:00:25;;;;;;;3.13;1.50;;;;;;;14.24;87.52;101842.31;5075716;28;20492;-70
2021/09/06 01:02:52;;;;;;;1.90;1.30;;;;;;;14.24;88.56;101845.03;5075343;28;20857;-70
2021/09/06 01:05:18;;;;;;;2.50;1.73;;;;;;;14.26;90.81;101838.19;5075401;28;20817;-71
2021/09/06 01:07:45;;;;;;;2.37;1.47;;;;;;;14.20;90.93;101836.63;5075529;28;20449;-71
2021/09/06 01:10:13;;;;;;;2.30;1.53;;;;;;;14.18;91.27;101836.13;5075668;28;20444;-71
2021/09/06 01:12:40;;;;;;;1.37;1.17;;;;;;;14.16;91.01;101832.88;5075546;28;20465;-70
2021/09/06 01:15:09;;;;;;;2.53;1.47;;;;;;;14.16;91.02;101841.03;5075507;28;20452;-70
2021/09/06 01:17:37;;;;;;;3.23;1.93;;;;;;;14.11;90.90;101850.09;5075525;28;20441;-71
2021/09/06 01:20:05;;;;;;;3.10;1.70;;;;;;;14.06;91.58;101849.38;5075397;28;20492;-70
2021/09/06 01:22:32;;;;;;;1.93;1.50;;;;;;;13.98;91.92;101845.38;5075382;28;20465;-70
2021/09/06 01:24:59;;;;;;;1.90;1.27;;;;;;;14.01;91.98;101842.06;5075660;28;20437;-70
2021/09/06 01:27:26;;;;;;;1.30;1.07;;;;;;;14.00;91.79;101850.56;5075299;28;20444;-71
2021/09/06 01:29:53;;;;;;;1.10;0.90;;;;;;;14.02;91.62;101849.13;5075102;28;20923;-71
2021/09/06 01:32:19;;;;;;;3.07;1.60;;;;;;;14.02;91.88;101845.59;5075246;28;20480;-71
2021/09/06 01:34:46;;;;;;;2.20;1.60;;;;;;;13.97;92.06;101845.69;5075086;28;20445;-70
2021/09/06 01:37:12;;;;;;;1.17;1.07;;;;;;;13.95;92.71;101845.19;5075344;28;20441;-69
2021/09/06 01:39:39;;;;;;;1.43;0.90;;;;;;;13.91;92.89;101846.84;5074978;28;20481;-69
2021/09/06 01:42:05;;;;;;;2.10;1.03;;;;;;;13.82;93.07;101847.50;5074947;28;20457;-70
2021/09/06 01:44:33;;;;;;;1.57;1.30;;;;;;;13.66;92.59;101851.50;5074940;28;20441;-70
2021/09/06 01:47:00;;;;;;;1.93;1.30;;;;;;;13.62;90.75;101850.47;5074928;28;20444;-69
2021/09/06 01:49:26;;;;;;;1.47;1.03;;;;;;;13.46;90.11;101841.69;5074624;28;20433;-69
2021/09/06 01:51:52;;;;;;;1.43;1.03;;;;;;;13.35;90.35;101843.69;5074750;28;20464;-68
2021/09/06 01:54:19;;;;;;;1.93;1.23;;;;;;;13.28;92.07;101839.66;5074719;28;20448;-68
2021/09/06 01:56:45;;;;;;;2.70;1.40;;;;;;;13.23;93.89;101832.38;5074694;28;20441;-69
2021/09/06 01:59:12;;;;;;;2.10;1.90;;;;;;;13.17;94.64;101836.22;5074551;28;20489;-68
2021/09/06 02:01:40;;;;;;;2.00;1.63;;;;;;;13.15;95.24;101838.44;5074508;28;20491;-70
2021/09/06 02:04:06;;;;;;;2.33;1.43;;;;;;;13.14;95.47;101839.50;5074545;28;20445;-69
2021/09/06 02:06:33;;;;;;;1.33;1.23;;;;;;;13.11;95.63;101838.19;5074500;28;20444;-69
2021/09/06 02:08:59;;;;;;;2.27;1.90;;;;;;;13.08;96.58;101835.22;5074301;28;20458;-69
2021/09/06 02:11:27;;;;;;;13.03;1.83;;;;;;;13.04;96.76;101840.44;5074321;28;20492;-68
2021/09/06 02:13:53;;;;;;;3.07;1.63;;;;;;;12.98;96.79;101840.78;5074378;28;20442;-68
2021/09/06 02:16:20;;;;;;;2.70;1.77;;;;;;;12.99;97.48;101843.19;5074022;28;20957;-68
2021/09/06 02:18:48;;;;;;;2.00;1.80;;;;;;;12.96;97.45;101840.22;5073957;28;20441;-69
2021/09/06 02:21:14;;;;;;;1.17;0.93;;;;;;;12.83;95.90;101839.78;5074108;28;20465;-68
2021/09/06 02:23:41;;;;;;;2.93;1.70;;;;;;;12.63;94.40;101842.69;5073775;28;20449;-68
2021/09/06 02:26:07;;;;;;;2.73;1.77;;;;;;;12.52;93.95;101843.84;5074033;28;20441;-68
2021/09/06 02:28:34;;;;;;;4.37;1.73;;;;;;;12.45;93.57;101848.81;5074027;28;20452;-68
2021/09/06 02:31:00;;;;;;;2.27;0.90;;;;;;;12.26;94.82;101846.75;5074204;28;20442;-69
2021/09/06 02:33:26;;;;;;;1.07;0.90;;;;;;;12.23;96.43;101852.75;5073949;28;20456;-69
2021/09/06 02:35:54;;;;;;;1.23;0.77;;;;;;;12.16;98.13;101846.00;5073943;28;20449;-69
2021/09/06 02:38:21;;;;;;;3.10;1.17;;;;;;;12.29;98.00;101848.91;5073870;28;20441;-69
2021/09/06 02:40:47;;;;;;;1.73;1.27;;;;;;;12.35;98.59;101849.66;5073724;28;20853;-69
2021/09/06 02:43:13;;;;;;;2.47;1.33;;;;;;;12.38;99.12;101849.91;5073772;28;20441;-68
2021/09/06 02:45:40;;;;;;;2.90;1.53;;;;;;;12.34;99.14;101857.00;5073757;28;20448;-69
2021/09/06 02:48:07;;;;;;;0.93;0.93;;;;;;;12.30;99.44;101855.94;5073765;28;20449;-69
2021/09/06 02:50:33;;;;;;;11.20;1.73;;;;;;;12.26;99.74;101846.75;5073650;28;20437;-69
2021/09/06 02:53:01;;;;;;;2.40;1.60;;;;;;;12.22;100.00;101842.97;5073571;28;20468;-69
2021/09/06 02:55:27;;;;;;;3.13;1.43;;;;;;;12.21;100.00;101844.06;5073367;28;20961;-70
2021/09/06 02:57:54;;;;;;;1.57;1.17;;;;;;;12.06;100.00;101844.16;5073683;28;20836;-69
2021/09/06 03:00:20;;;;;;;3.47;2.23;;;;;;;12.18;99.74;101843.81;5073492;28;20485;-70
2021/09/06 03:02:47;;;;;;;1.53;1.43;;;;;;;12.23;99.63;101844.59;5073247;28;20903;-68
2021/09/06 03:05:13;;;;;;;2.33;1.60;;;;;;;12.20;99.38;101837.00;5073004;28;20448;-68
2021/09/06 03:07:40;;;;;;;3.53;1.40;;;;;;;12.18;99.67;101838.38;5073411;28;20457;-69
2021/09/06 03:10:09;;;;;;;2.90;1.63;;;;;;;12.11;99.25;101830.53;5073417;28;20444;-70
2021/09/06 03:12:35;;;;;;;1.60;1.10;;;;;;;12.09;99.07;101827.31;5073269;28;20465;-69
2021/09/06 03:15:02;;;;;;;3.47;1.97;;;;;;;12.06;99.25;101838.72;5073333;28;20472;-69
2021/09/06 03:17:28;;;;;;;1.80;1.17;;;;;;;12.08;99.39;101831.91;5073243;28;20441;-69
2021/09/06 03:19:55;;;;;;;2.67;1.73;;;;;;;11.92;97.07;101829.56;5073191;28;20478;-69
2021/09/06 03:22:22;;;;;;;2.33;1.67;;;;;;;11.84;96.96;101830.94;5073222;28;20466;-70
2021/09/06 03:24:48;;;;;;;1.37;0.93;;;;;;;11.82;95.52;101827.66;5073399;28;20490;-73
2021/09/06 03:27:16;;;;;;;2.17;1.40;;;;;;;11.64;95.19;101831.81;5073262;28;20452;-70
2021/09/06 03:29:42;;;;;;;4.20;1.60;;;;;;;11.51;95.90;101829.69;5073126;28;20969;-70
2021/09/06 03:32:09;;;;;;;2.97;1.10;;;;;;;11.53;96.84;101825.59;5073099;28;20465;-69
2021/09/06 03:34:35;;;;;;;3.57;1.30;;;;;;;11.64;97.81;101823.66;5073180;28;20445;-69
2021/09/06 03:37:02;;;;;;;3.00;1.10;;;;;;;11.65;98.74;101825.31;5072958;28;20934;-69
2021/09/06 03:39:28;;;;;;;1.87;1.30;;;;;;;11.64;99.30;101818.22;5073042;28;20503;-69
2021/09/06 03:41:55;;;;;;;4.47;1.40;;;;;;;11.68;98.36;101815.78;5072963;28;20986;-71
2021/09/06 03:44:24;;;;;;;2.63;2.00;;;;;;;11.65;98.17;101814.44;5073050;28;20433;-69
2021/09/06 03:46:51;;;;;;;2.30;1.70;;;;;;;11.55;98.79;101814.47;5073073;28;20450;-69
2021/09/06 03:49:17;;;;;;;2.13;1.63;;;;;;;11.47;100.00;101812.34;5072995;28;20437;-69
2021/09/06 03:51:43;;;;;;;2.83;1.93;;;;;;;11.45;100.00;101814.50;5072639;28;20987;-69
2021/09/06 03:54:10;;;;;;;2.23;1.40;;;;;;;11.45;100.00;101814.50;5072991;28;20448;-69
2021/09/06 03:56:36;;;;;;;3.23;2.07;;;;;;;11.37;100.00;101813.16;5072592;28;20465;-71
2021/09/06 03:59:03;;;;;;;1.60;1.47;;;;;;;11.26;100.00;101812.41;5072642;28;20934;-70
2021/09/06 04:01:30;;;;;;;5.50;1.10;;;;;;;11.18;100.00;101806.72;5072360;28;20906;-70
2021/09/06 04:03:57;;;;;;;10.70;2.67;;;;;;;11.33;100.00;101818.38;5072822;28;20441;-69
2021/09/06 04:06:23;;;;;;;2.83;1.17;;;;;;;11.42;100.00;101820.47;5072863;28;20445;-70
2021/09/06 04:08:50;;;;;;;3.73;2.40;;;;;;;11.38;100.00;101809.41;5072500;28;21020;-70
2021/09/06 04:11:16;;;;;;;1.63;1.10;;;;;;;11.40;99.88;101811.81;5072716;28;20468;-69
2021/09/06 04:13:44;;;;;;;2.23;1.30;;;;;;;11.47;99.75;101812.34;5072728;28;20437;-70
2021/09/06 04:16:10;;;;;;;16.10;1.90;;;;;;;11.42;99.06;101820.47;5073696;28;20535;-69
2021/09/06 04:18:38;;;;;;;1.97;1.30;;;;;;;11.29;98.11;101822.72;5076640;28;20452;-70
2021/09/06 04:21:05;;;;;;;1.30;1.20;;;;;;;11.16;97.14;101823.28;5076354;28;20863;-69
2021/09/06 04:23:32;;;;;;;2.00;1.03;;;;;;;11.10;97.08;101821.66;5076503;28;20469;-70
2021/09/06 04:26:00;;;;;;;3.63;1.40;;;;;;;11.01;95.36;101820.56;5076479;28;20445;-70
2021/09/06 04:28:27;;;;;;;4.77;1.63;;;;;;;10.82;97.89;101823.84;5076454;28;20473;-69
2021/09/06 04:30:53;;;;;;;2.17;1.23;;;;;;;10.85;97.04;101815.19;5076612;28;20437;-71
2021/09/06 04:33:20;;;;;;;2.47;1.30;;;;;;;10.83;96.91;101814.63;5076228;28;20448;-70
2021/09/06 04:35:47;;;;;;;1.77;1.10;;;;;;;10.83;98.44;101819.25;5076189;28;20440;-69
2021/09/06 04:38:14;;;;;;;3.43;2.07;;;;;;;10.79;99.82;101821.69;5076177;28;20445;-69
2021/09/06 04:40:40;;;;;;;2.03;1.33;;;;;;;10.88;100.00;101826.56;5075804;28;20990;-69
2021/09/06 04:43:07;;;;;;;3.00;1.63;;;;;;;10.74;100.00;101821.69;5076027;28;20504;-69
2021/09/06 04:45:33;;;;;;;1.73;1.40;;;;;;;10.80;100.00;101823.31;5075976;28;20456;-70
2021/09/06 04:48:00;;;;;;;2.03;1.57;;;;;;;10.92;100.00;101825.75;5076186;28;20453;-69
2021/09/06 04:50:27;;;;;;;1.77;1.37;;;;;;;10.96;100.00;101840.38;5076039;28;20433;-69
2021/09/06 04:52:55;;;;;;;1.50;1.13;;;;;;;11.00;100.00;101829.81;5075914;28;20472;-69
2021/09/06 04:55:22;;;;;;;1.77;1.63;;;;;;;11.04;100.00;101831.69;5075627;28;20981;-70
2021/09/06 04:57:48;;;;;;;6.10;2.80;;;;;;;10.97;100.00;101830.34;5075651;28;20430;-70
2021/09/06 05:00:15;;;;;;;2.23;1.33;;;;;;;10.91;100.00;101834.16;5076070;28;20489;-68
2021/09/06 05:02:42;;;;;;;4.07;3.27;;;;;;;10.92;100.00;101839.28;5077132;28;20472;-68
2021/09/06 05:05:10;;;;;;;3.53;1.80;;;;;;;10.91;100.00;101836.88;5075739;28;20441;-69
2021/09/06 05:07:36;;;;;;;2.83;1.90;;;;;;;10.94;100.00;101841.75;5075469;28;20463;-70
2021/09/06 05:10:05;;;;;;;4.50;1.37;;;;;;;10.92;100.00;101838.47;5075679;28;20437;-69
2021/09/06 05:12:31;;;;;;;2.50;1.83;;;;;;;10.97;100.00;101843.91;5075200;28;20868;-69
2021/09/06 05:14:58;;;;;;;2.00;1.53;;;;;;;10.89;100.00;101845.28;5075536;28;20456;-69
2021/09/06 05:17:24;;;;;;;2.60;1.07;;;;;;;10.83;100.00;101846.34;5075524;28;20541;-69
2021/09/06 05:19:50;;;;;;;3.23;2.10;;;;;;;10.85;100.00;101845.00;5075301;28;20449;-70
2021/09/06 05:22:17;;;;;;;1.90;1.73;;;;;;;10.84;100.00;101837.94;5075355;28;20469;-70
2021/09/06 05:24:43;;;;;;;2.00;1.80;;;;;;;10.89;100.00;101842.56;5075364;28;20441;-69
2021/09/06 05:27:11;;;;;;;2.23;1.60;;;;;;;10.94;100.00;101847.19;5074976;28;20446;-69
2021/09/06 05:29:38;;;;;;;2.40;1.70;;;;;;;11.02;100.00;101854.72;5075284;28;20441;-69
2021/09/06 05:32:05;;;;;;;3.40;2.00;;;;;;;11.04;100.00;101858.81;5075423;28;20469;-70
2021/09/06 05:34:32;;;;;;;2.60;1.70;;;;;;;11.13;100.00;101859.06;5075043;28;20444;-71
2021/09/06 05:36:58;;;;;;;1.67;1.30;;;;;;;11.18;100.00;101861.78;5074926;28;20449;-69
2021/09/06 05:39:25;;;;;;;2.50;1.83;;;;;;;11.25;100.00;101867.75;5074947;28;20445;-66
2021/09/06 05:41:51;;;;;;;2.30;1.70;;;;;;;11.33;100.00;101871.78;5074910;28;20493;-66
2021/09/06 05:44:19;;;;;;;3.20;1.87;;;;;;;11.39;100.00;101875.31;5075190;28;20484;-65
2021/09/06 05:46:46;;;;;;;1.43;1.33;;;;;;;11.55;100.00;101879.59;5074916;28;20444;-67
2021/09/06 05:49:12;;;;;;;2.33;1.50;;;;;;;11.68;100.00;101876.31;5074850;28;20437;-66
2021/09/06 05:51:39;;;;;;;2.97;2.53;;;;;;;11.80;100.00;101870.56;5074474;28;20510;-67
2021/09/06 05:54:05;;;;;;;2.83;1.60;;;;;;;11.95;100.00;101875.16;5075219;28;20441;-66
2021/09/06 05:56:32;;;;;;;2.10;1.53;;;;;;;12.08;100.00;101861.78;5075041;28;20446;-67
2021/09/06 05:58:58;;;;;;;1.30;1.20;;;;;;;12.18;100.00;101865.56;5074598;28;20441;-66
2021/09/06 06:01:26;;;;;;;2.47;1.93;;;;;;;12.31;100.00;101882.03;5074442;28;20551;-65
2021/09/06 06:03:53;;;;;;;3.70;1.77;;;;;;;12.42;100.00;101876.53;5074394;28;20445;-68
2021/09/06 06:06:19;;;;;;;3.77;1.77;;;;;;;12.54;100.00;101874.28;5074505;28;20446;-66
2021/09/06 06:08:45;;;;;;;4.83;2.70;;;;;;;12.60;100.00;101867.72;5074129;28;20454;-67
2021/09/06 06:11:12;;;;;;;1.93;1.80;;;;;;;12.72;100.00;101878.25;5074322;28;20453;-65
2021/09/06 06:13:39;;;;;;;7.00;2.50;;;;;;;12.77;100.00;101879.00;5074300;28;20445;-65
2021/09/06 06:16:06;;;;;;;2.23;2.00;;;;;;;12.86;100.00;101881.94;5074437;28;20471;-66
2021/09/06 06:18:34;;;;;;;2.70;2.20;;;;;;;12.94;100.00;101889.47;5074522;28;20437;-66
2021/09/06 06:21:01;;;;;;;6.00;2.20;;;;;;;13.05;100.00;101884.75;5074041;28;20857;-66
2021/09/06 06:23:27;;;;;;;2.13;1.53;;;;;;;13.15;99.75;101873.81;5074159;28;20827;-67
2021/09/06 06:25:53;;;;;;;2.40;1.83;;;;;;;13.27;99.16;101876.16;5073952;28;20468;-67
2021/09/06 06:28:20;;;;;;;3.57;2.40;;;;;;;13.34;99.50;101879.34;5073767;28;20958;-67
2021/09/06 06:30:46;;;;;;;3.37;2.60;;;;;;;13.49;99.50;101881.09;5073805;28;20433;-67
2021/09/06 06:33:13;;;;;;;2.20;1.83;;;;;;;13.56;99.82;101884.31;5074040;28;20445;-66
2021/09/06 06:35:41;;;;;;;6.70;2.33;;;;;;;13.68;100.00;101887.44;5073827;28;20441;-67
2021/09/06 06:38:07;;;;;;;2.60;2.40;;;;;;;13.77;99.98;101884.91;5073659;28;20441;-65
2021/09/06 06:40:35;;;;;;;4.40;2.40;;;;;;;13.84;99.70;101883.41;5073042;28;20998;-66
2021/09/06 06:43:02;;;;;;;5.30;3.53;;;;;;;13.96;99.34;101888.47;5073792;28;20515;-66
2021/09/06 06:45:28;;;;;;;4.00;1.73;;;;;;;14.06;99.09;101890.25;5073773;28;20445;-67
2021/09/06 06:47:55;;;;;;;2.50;1.90;;;;;;;14.11;98.66;101898.34;5073457;28;20926;-67
2021/09/06 06:50:24;;;;;;;4.50;2.20;;;;;;;14.24;97.31;101894.91;5073610;28;20441;-67
2021/09/06 06:52:52;;;;;;;3.90;3.27;;;;;;;14.38;90.87;101898.50;5073535;28;20465;-66
2021/09/06 06:55:19;;;;;;;3.90;2.00;;;;;;;14.57;89.43;101906.75;5073503;28;20467;-65
2021/09/06 06:57:45;;;;;;;4.13;2.57;;;;;;;14.72;88.80;101900.22;5073424;28;20449;-66
2021/09/06 07:00:13;;;;;;;6.40;2.23;;;;;;;14.82;89.44;101894.59;5073463;28;20448;-66
2021/09/06 07:02:39;;;;;;;3.97;1.73;;;;;;;14.92;90.04;101898.28;5073472;28;20464;-67
2021/09/06 07:05:07;;;;;;;1.80;1.70;;;;;;;14.98;91.08;101897.91;5073434;28;20441;-67
2021/09/06 07:07:33;;;;;;;1.43;1.33;;;;;;;15.04;90.88;101904.09;5073232;28;20456;-66
2021/09/06 07:10:01;;;;;;;2.60;1.80;;;;;;;15.11;90.19;101909.97;5073488;28;20430;-67
2021/09/06 07:12:27;;;;;;;8.23;2.20;;;;;;;15.18;87.20;101904.94;5073206;28;20461;-67
2021/09/06 07:14:54;;;;;;;2.90;1.40;;;;;;;15.27;88.11;101903.16;5073281;28;20449;-66
2021/09/06 07:17:21;;;;;;;3.67;2.47;;;;;;;15.31;88.66;101906.88;5073134;28;20484;-67
2021/09/06 07:19:47;;;;;;;3.30;1.50;;;;;;;15.36;88.44;101908.72;5072974;28;20784;-66
2021/09/06 07:22:14;;;;;;;3.77;2.30;;;;;;;15.38;86.93;101906.50;5073084;28;20895;-67
2021/09/06 07:24:40;;;;;;;2.57;1.97;;;;;;;15.42;87.48;101907.53;5073250;28;20437;-66
2021/09/06 07:27:08;;;;;;;3.90;1.93;;;;;;;15.47;86.81;101906.63;5073207;28;20449;-66
2021/09/06 07:29:34;;;;;;;3.83;2.37;;;;;;;15.58;86.10;101899.84;5073179;28;20446;-66
2021/09/06 07:32:01;;;;;;;4.10;2.60;;;;;;;15.66;84.16;101906.56;5072721;28;20460;-67
2021/09/06 07:34:30;;;;;;;2.70;1.60;;;;;;;15.75;84.40;101902.81;5073133;28;20480;-67
2021/09/06 07:36:58;;;;;;;11.17;3.17;;;;;;;15.86;83.16;101906.16;5073141;28;20472;-67
2021/09/06 07:39:24;;;;;;;4.77;2.03;;;;;;;15.94;84.33;101908.19;5073057;28;20441;-70
2021/09/06 07:41:50;;;;;;;4.67;2.87;;;;;;;15.98;87.14;101908.38;5072998;28;20482;-71
2021/09/06 07:44:18;;;;;;;3.00;1.77;;;;;;;15.99;87.70;101905.34;5073082;28;20437;-71
2021/09/06 07:46:45;;;;;;;2.40;2.20;;;;;;;16.01;88.51;101902.31;5072756;28;20829;-69
2021/09/06 07:49:11;;;;;;;6.10;3.10;;;;;;;15.96;89.01;101900.50;5072916;28;20452;-70
2021/09/06 07:51:38;;;;;;;2.40;1.90;;;;;;;16.03;88.87;101900.09;5076063;28;20460;-69
2021/09/06 07:54:06;;;;;;;3.80;2.63;;;;;;;16.08;87.04;101902.72;5077269;28;20437;-70
2021/09/06 07:56:33;;;;;;;2.97;2.07;;;;;;;16.20;83.12;101904.91;5077307;28;20814;-69
2021/09/06 07:58:59;;;;;;;2.73;2.00;;;;;;;16.27;84.37;101906.13;5077000;28;20448;-70
2021/09/06 08:01:27;;;;;;;6.13;2.53;;;;;;;16.28;85.27;101915.13;5076836;28;20711;-71
2021/09/06 08:03:53;;;;;;;4.83;2.27;;;;;;;16.27;85.42;101921.72;5076916;28;20448;-69
2021/09/06 08:06:20;;;;;;;4.27;2.67;;;;;;;16.26;84.43;101920.91;5076409;28;20915;-70
2021/09/06 08:08:46;;;;;;;3.53;2.00;;;;;;;16.32;85.21;101922.41;5076536;28;20469;-71
2021/09/06 08:11:13;;;;;;;4.33;2.10;;;;;;;16.35;86.34;101919.06;5076888;28;20465;-68
2021/09/06 08:13:39;;;;;;;4.00;2.63;;;;;;;16.35;84.10;101919.06;5076640;28;20445;-69
2021/09/06 08:16:06;;;;;;;4.20;1.93;;;;;;;16.46;86.21;101927.03;5076639;28;20441;-70
2021/09/06 08:18:33;;;;;;;6.70;2.70;;;;;;;16.51;85.19;101915.97;5076590;28;20448;-68
2021/09/06 08:21:00;;;;;;;5.50;2.50;;;;;;;16.55;85.33;101927.91;5076379;28;20480;-70
2021/09/06 08:23:26;;;;;;;5.47;3.37;;;;;;;16.56;84.96;101929.56;5076130;28;20996;-70
2021/09/06 08:25:53;;;;;;;3.80;2.17;;;;;;;16.51;81.75;101922.28;5076424;28;20966;-70
2021/09/06 08:28:19;;;;;;;6.90;2.63;;;;;;;16.65;82.75;101933.19;5076305;28;20437;-70
2021/09/06 08:30:46;;;;;;;3.90;2.83;;;;;;;16.71;79.03;101925.66;5076273;28;20864;-70
2021/09/06 08:33:12;;;;;;;4.10;2.30;;;;;;;16.80;80.47;101921.88;5076275;28;20441;-69
2021/09/06 08:35:41;;;;;;;4.60;2.90;;;;;;;16.94;82.21;101931.97;5075927;28;20826;-69
2021/09/06 08:38:08;;;;;;;5.70;3.03;;;;;;;16.98;82.99;101930.22;5076299;28;20445;-69
2021/09/06 08:40:34;;;;;;;4.13;3.20;;;;;;;17.02;82.91;101925.75;5076153;28;20444;-70
2021/09/06 08:43:05;;;;;;;9.13;2.90;;;;;;;17.11;80.09;101927.44;5075964;28;20488;-69
2021/09/06 08:45:32;;;;;;;5.73;3.30;;;;;;;17.25;79.07;101930.09;5076127;28;20421;-70
2021/09/06 08:47:59;;;;;;;4.53;3.10;;;;;;;17.36;76.27;101938.88;5076081;28;20803;-70
2021/09/06 08:50:26;;;;;;;4.67;2.90;;;;;;;17.52;76.24;101936.50;5076069;28;20819;-70
2021/09/06 08:52:54;;;;;;;3.73;2.63;;;;;;;17.58;77.41;101943.50;5075571;28;20468;-69
2021/09/06 08:55:20;;;;;;;4.77;2.20;;;;;;;17.63;78.73;101941.41;5075929;28;20445;-70
2021/09/06 08:57:47;;;;;;;4.17;3.03;;;;;;;17.67;79.24;101938.88;5075970;28;20455;-70
2021/09/06 09:00:15;;;;;;;5.33;3.07;;;;;;;17.76;75.56;101941.66;5076124;28;20442;-69
2021/09/06 09:02:42;;;;;;;8.53;3.10;;;;;;;17.85;73.37;101948.81;5074984;28;20511;-70
2021/09/06 09:05:11;;;;;;;6.53;3.67;;;;;;;17.93;73.50;101938.16;5075477;28;20487;-70
2021/09/06 09:07:39;;;;;;;4.30;2.50;;;;;;;18.04;72.68;101947.72;5075544;28;20449;-71
2021/09/06 09:10:10;;;;;;;6.40;3.03;;;;;;;18.15;71.53;101946.31;5075668;28;20456;-70
2021/09/06 09:12:38;;;;;;;6.73;3.17;;;;;;;18.14;71.95;101953.72;5075547;28;20469;-70
2021/09/06 09:15:07;;;;;;;3.80;2.57;;;;;;;18.22;75.17;101943.09;5075543;28;20441;-70
2021/09/06 09:17:34;;;;;;;3.03;2.00;;;;;;;18.25;76.94;101945.22;5075573;28;20484;-70
2021/09/06 09:20:04;;;;;;;5.70;3.17;;;;;;;18.29;77.35;101955.22;5076527;28;20442;-70
2021/09/06 09:22:32;;;;;;;6.07;3.70;;;;;;;18.34;74.33;101955.06;5078682;28;20485;-70
2021/09/06 09:25:00;;;;;;;4.80;3.13;;;;;;;18.48;74.03;101954.13;5075606;28;20430;-70
2021/09/06 09:27:33;;;;;;;5.67;3.57;;;;;;;18.51;75.80;101953.47;5075367;28;20457;-71
2021/09/06 09:30:00;;;;;;;11.57;3.40;;;;;;;18.58;72.47;101951.84;5075294;28;20445;-70
2021/09/06 09:32:27;;;;;;;4.57;2.80;;;;;;;18.65;71.13;101937.66;5075464;28;20461;-71
2021/09/06 09:34:54;;;;;;;6.30;3.43;;;;;;;18.64;72.38;101944.28;5075268;28;20441;-69
2021/09/06 09:37:25;;;;;;;4.73;3.23;;;;;;;18.63;72.93;101939.91;5075117;28;20441;-69
2021/09/06 09:39:54;;;;;;;6.60;2.90;;;;;;;18.67;73.22;101932.66;5075161;28;20445;-70
2021/09/06 09:42:21;;;;;;;7.47;4.13;;;;;;;18.79;72.22;101932.03;5074991;28;20520;-70
2021/09/06 09:44:51;;;;;;;5.37;2.87;;;;;;;18.84;71.42;101929.13;5074971;28;20444;-70
2021/09/06 09:47:20;;;;;;;10.70;4.23;;;;;;;18.86;71.90;101930.44;5074941;28;20487;-70
2021/09/06 09:49:48;;;;;;;6.30;2.67;;;;;;;18.95;73.64;101929.59;5074539;28;20962;-70
2021/09/06 09:52:15;;;;;;;6.53;3.23;;;;;;;18.89;73.76;101927.00;5074754;28;20544;-70
2021/09/06 09:54:42;;;;;;;5.00;3.37;;;;;;;18.99;72.85;101925.91;5074768;28;20481;-69
2021/09/06 09:57:08;;;;;;;5.00;3.10;;;;;;;19.10;74.21;101927.16;5074821;28;20441;-71
2021/09/06 09:59:35;;;;;;;7.43;3.47;;;;;;;19.25;71.31;101923.06;5074875;28;20808;-70
2021/09/06 10:02:08;;;;;;;3.70;2.30;;;;;;;19.42;72.55;101923.03;5074464;28;20493;-70
2021/09/06 10:04:40;;;;;;;6.50;3.07;;;;;;;19.55;67.43;101923.16;5074391;28;20907;-70
2021/09/06 10:07:09;;;;;;;7.33;3.33;;;;;;;19.63;67.39;101922.34;5074386;28;20426;-71
2021/09/06 10:09:40;;;;;;;5.10;3.27;;;;;;;19.77;69.77;101924.88;5074705;28;20422;-70
2021/09/06 10:12:08;;;;;;;8.27;3.00;;;;;;;19.80;69.22;101925.03;5074455;28;20457;-70
2021/09/06 10:14:35;;;;;;;3.80;2.50;;;;;;;19.84;67.11;101917.72;5073388;28;20537;-67
2021/09/06 10:17:04;;;;;;;4.87;2.40;;;;;;;19.97;68.59;101924.13;5074520;28;20441;-70
2021/09/06 10:19:42;;;;;;;5.73;3.03;;;;;;;20.04;66.72;101920.84;5074106;28;20856;-69
2021/09/06 10:22:19;;;;;;;4.20;2.20;;;;;;;20.14;68.22;101925.97;5074140;28;20496;-71
2021/09/06 10:24:55;;;;;;;3.80;2.50;;;;;;;20.26;69.11;101922.50;5074260;28;20433;-70
2021/09/06 10:27:22;;;;;;;4.37;3.30;;;;;;;20.33;65.53;101926.34;5074208;28;20440;-71
2021/09/06 10:29:58;;;;;;;4.60;2.43;;;;;;;20.43;68.14;101916.88;5074084;28;20817;-70
2021/09/06 10:32:34;;;;;;;8.07;3.27;;;;;;;20.43;69.95;101914.13;5074031;28;20468;-70
2021/09/06 10:35:03;;;;;;;9.50;3.50;;;;;;;20.44;67.18;101912.16;5074103;28;20430;-70
2021/09/06 10:37:34;;;;;;;5.73;2.90;;;;;;;20.51;64.72;101918.00;5073920;28;20448;-71
2021/09/06 10:40:00;;;;;;;4.90;3.17;;;;;;;20.60;65.96;101910.47;5073955;28;20528;-70
2021/09/06 10:42:31;;;;;;;5.73;2.97;;;;;;;20.75;65.07;101912.59;5073735;28;20489;-70
2021/09/06 10:45:00;;;;;;;4.20;2.90;;;;;;;20.89;64.04;101910.38;5073813;28;20781;-70
2021/09/06 10:47:27;;;;;;;4.83;2.50;;;;;;;21.05;63.54;101918.78;5073699;28;20442;-70
2021/09/06 10:49:56;;;;;;;6.60;2.63;;;;;;;21.19;64.95;101910.22;5073740;28;20452;-70
2021/09/06 10:52:25;;;;;;;6.00;3.23;;;;;;;21.33;60.85;101910.72;5073632;28;20461;-70
2021/09/06 10:54:52;;;;;;;5.10;2.40;;;;;;;21.45;63.56;101914.66;5075872;28;20441;-69
2021/09/06 10:57:18;;;;;;;6.37;2.60;;;;;;;21.65;63.61;101911.81;5073317;28;20953;-70
2021/09/06 10:59:45;;;;;;;6.00;2.43;;;;;;;21.86;60.96;101913.63;5073539;28;20445;-71
2021/09/06 11:04:44;;;;;;;4.50;3.00;;;;;;;22.08;59.39;101917.88;5095498;22;20555;-68
2021/09/06 11:07:12;;;;;;;7.00;3.20;;;;;;;21.97;60.28;101905.72;5073597;28;20441;-69
2021/09/06 11:09:38;;;;;;;3.50;2.80;;;;;;;22.25;60.54;101900.28;5073245;28;20472;-68
2021/09/06 11:12:07;;;;;;;7.80;2.83;;;;;;;22.57;62.85;101904.00;5073642;28;20442;-67
2021/09/06 11:14:40;;;;;;;3.80;2.57;;;;;;;22.87;59.10;101905.25;5073440;28;20461;-67
2021/09/06 11:17:17;;;;;;;4.53;2.33;;;;;;;23.58;56.41;101906.34;5073603;28;20514;-68
2021/09/06 11:19:43;;;;;;;4.43;2.67;;;;;;;24.15;55.95;101901.38;5073456;28;20437;-67
2021/09/06 11:22:16;;;;;;;5.30;3.13;;;;;;;24.78;54.26;101912.22;5073995;28;20481;-68
2021/09/06 11:24:44;;;;;;;7.33;3.40;;;;;;;25.09;53.52;101913.22;5073152;28;20461;-68
2021/09/06 11:27:23;;;;;;;4.27;3.10;;;;;;;25.51;50.54;101909.63;5073363;28;20441;-67